Mahdia, Tunisia
Current Conditions -  °F | °C
As of 8:30 PM on Tuesday 21 Oct 2014 (Local Time) from DTMB Reporting Station
Clear Clear  
Wind Chill: 72°   Ceiling: Unl
Heat Index: 72°   Visibility: 6mi
Dew Point: 61°   Wind: 2mph
Humidity: 69%   Direction: 240°WSW
Pressure: 30.03"   Gusts: NA
Location:  35.5°N, 11.06°E
Report Text: DTMB 211930Z 24002KT CAVOK 22/16 Q1017 NOSIG
Loading
Personal Weather Stations






























Interactive Weather Map
Tropical Storm Tracking
New forecast layout! Learn more

10-Day Weather Forecast

Advertisements
Track Severe Weather on mobile